Time;durP1;ratioP1;P1;durP2;ratioP2;P2;SDS_P1;SDS_P2;PMS_P1;PMS_P2;Temp;Humidity;BMP_temperature;BMP_pressure;BME280_temperature;BME280_humidity;BME280_pressure;Samples;Min_cycle;Max_cycle;Signal;HPM_P1;HPM_P2
2021/09/29 00:00:05;;;;;;;18.27;10.10;;;;;;;16.68;90.85;96464.28;5078218;28;20200;-74
2021/09/29 00:02:32;;;;;;;20.15;9.95;;;;;;;16.58;91.43;96461.25;5078084;28;20218;-74
2021/09/29 00:04:58;;;;;;;16.95;9.38;;;;;;;16.53;92.15;96464.53;5078662;28;20219;-73
2021/09/29 00:07:25;;;;;;;15.63;9.93;;;;;;;16.53;91.38;96466.38;5077202;28;20231;-72
2021/09/29 00:09:51;;;;;;;18.75;9.90;;;;;;;16.43;91.59;96463.31;5077876;28;20214;-73
2021/09/29 00:12:21;;;;;;;14.27;8.52;;;;;;;16.61;91.30;96455.50;5077776;28;20215;-73
2021/09/29 00:14:47;;;;;;;16.15;9.48;;;;;;;16.51;90.56;96457.78;5078191;28;20300;-74
2021/09/29 00:17:14;;;;;;;15.27;9.10;;;;;;;16.43;90.93;96468.63;5076834;28;20210;-74
2021/09/29 00:19:40;;;;;;;15.60;9.23;;;;;;;16.40;90.58;96460.28;5077607;28;20208;-74
2021/09/29 00:22:07;;;;;;;19.98;9.88;;;;;;;16.38;90.79;96471.13;5077740;28;20224;-74
2021/09/29 00:24:33;;;;;;;16.20;9.65;;;;;;;16.27;90.88;96474.41;5077790;28;20203;-74
2021/09/29 00:27:00;;;;;;;19.38;9.73;;;;;;;16.37;90.94;96468.66;5076796;28;20224;-73
2021/09/29 00:29:28;;;;;;;16.90;9.20;;;;;;;16.67;89.99;96462.66;5077391;28;20204;-73
2021/09/29 00:31:54;;;;;;;16.67;9.80;;;;;;;16.52;90.51;96467.38;5077648;28;20227;-72
2021/09/29 00:34:29;;;;;;;19.42;10.00;;;;;;;16.56;89.77;96473.97;5077579;28;20235;-74
2021/09/29 00:36:56;;;;;;;14.73;9.48;;;;;;;16.52;89.92;96473.53;5076194;28;20686;-74
2021/09/29 00:39:22;;;;;;;16.58;9.70;;;;;;;16.59;89.06;96460.22;5074108;28;20206;-73
2021/09/29 00:41:49;;;;;;;17.73;9.85;;;;;;;16.57;89.65;96468.44;5077279;28;20576;-73
2021/09/29 00:44:16;;;;;;;17.08;9.65;;;;;;;16.66;88.95;96463.69;5077389;28;20208;-74
2021/09/29 00:46:43;;;;;;;15.52;9.15;;;;;;;16.78;89.13;96467.34;5077179;28;20223;-74
2021/09/29 00:49:10;;;;;;;16.48;9.65;;;;;;;16.55;90.54;96467.81;5076917;28;20591;-74
2021/09/29 00:51:37;;;;;;;15.23;8.90;;;;;;;16.62;90.76;96465.13;5077206;28;20215;-73
2021/09/29 00:54:04;;;;;;;14.05;9.25;;;;;;;16.81;89.97;96473.03;5077312;28;20208;-74
2021/09/29 00:56:31;;;;;;;14.93;9.88;;;;;;;16.62;89.47;96483.75;5076585;28;20199;-74
2021/09/29 00:58:58;;;;;;;14.95;9.70;;;;;;;16.63;89.54;96480.88;5077253;28;20207;-73
2021/09/29 01:01:25;;;;;;;22.88;9.55;;;;;;;16.51;89.39;96485.22;5076864;28;20223;-73
2021/09/29 01:03:54;;;;;;;16.88;9.55;;;;;;;16.54;89.23;96490.09;5076620;28;20208;-73
2021/09/29 01:06:27;;;;;;;17.63;9.10;;;;;;;16.63;89.58;96488.06;5076064;28;20211;-73
2021/09/29 01:08:57;;;;;;;16.20;8.75;;;;;;;16.54;89.37;96491.97;5076723;28;20207;-74
2021/09/29 01:11:28;;;;;;;18.67;9.15;;;;;;;16.63;89.39;96485.38;5076992;28;20224;-73
2021/09/29 01:14:02;;;;;;;17.10;9.75;;;;;;;16.55;90.49;96480.28;5076843;28;20590;-73
2021/09/29 01:16:31;;;;;;;19.40;9.85;;;;;;;16.65;91.26;96468.19;5076421;28;20203;-74
2021/09/29 01:19:01;;;;;;;18.58;9.57;;;;;;;16.59;93.04;96463.69;5077310;28;20294;-74
2021/09/29 01:21:32;;;;;;;18.15;9.95;;;;;;;16.63;93.09;96451.59;5076729;28;20229;-74
2021/09/29 01:24:07;;;;;;;17.00;9.20;;;;;;;16.59;93.39;96449.59;5076862;28;20200;-73
2021/09/29 01:26:37;;;;;;;19.38;9.65;;;;;;;16.61;93.20;96448.34;5075939;28;20230;-73
2021/09/29 01:29:06;;;;;;;16.17;10.05;;;;;;;16.59;92.69;96446.91;5076990;28;20576;-73
2021/09/29 01:31:34;;;;;;;18.77;10.65;;;;;;;16.48;93.18;96452.06;5076762;28;20234;-74
2021/09/29 01:34:02;;;;;;;17.08;9.48;;;;;;;16.52;92.76;96454.91;5076169;28;20203;-73
2021/09/29 01:36:29;;;;;;;18.50;10.27;;;;;;;16.50;92.36;96461.47;5076067;28;20202;-74
2021/09/29 01:38:58;;;;;;;16.90;9.95;;;;;;;16.56;93.30;96447.34;5073246;28;20208;-74
2021/09/29 01:41:26;;;;;;;15.38;9.85;;;;;;;16.65;93.21;96441.59;5076026;28;20227;-74
2021/09/29 01:43:55;;;;;;;21.75;10.40;;;;;;;16.54;94.16;96444.06;5076520;28;21010;-74
2021/09/29 01:46:22;;;;;;;17.05;10.70;;;;;;;16.30;94.26;96442.06;5075877;28;20199;-73
2021/09/29 01:49:06;;;;;;;17.45;10.88;;;;;;;16.53;94.31;96431.78;5078958;28;20199;-73
2021/09/29 01:51:36;;;;;;;19.38;10.00;;;;;;;16.30;95.20;96431.41;5080562;28;20230;-74
2021/09/29 01:54:03;;;;;;;19.92;10.80;;;;;;;16.20;96.06;96440.81;5080808;28;20208;-73
2021/09/29 01:56:32;;;;;;;19.08;10.93;;;;;;;16.36;95.90;96440.44;5079498;28;20232;-74
2021/09/29 01:59:02;;;;;;;21.13;10.88;;;;;;;16.36;94.99;96441.25;5080572;28;20290;-73
2021/09/29 02:01:29;;;;;;;28.10;10.93;;;;;;;16.27;95.06;96447.81;5081595;28;20239;-73
2021/09/29 02:03:55;;;;;;;16.75;10.00;;;;;;;16.30;95.30;96447.38;5080458;28;20204;-73
2021/09/29 02:06:22;;;;;;;21.90;10.57;;;;;;;16.35;95.71;96450.25;5079007;28;20204;-73
2021/09/29 02:08:48;;;;;;;20.65;10.18;;;;;;;16.28;95.99;96448.59;5080681;28;20223;-73
2021/09/29 02:11:15;;;;;;;21.77;11.65;;;;;;;16.13;96.51;96450.66;5080505;28;20238;-73
2021/09/29 02:13:41;;;;;;;20.50;11.40;;;;;;;16.20;96.18;96452.25;5079674;28;20219;-73
2021/09/29 02:16:09;;;;;;;22.05;12.30;;;;;;;16.35;96.21;96455.56;5079983;28;20246;-73
2021/09/29 02:18:36;;;;;;;20.05;11.05;;;;;;;16.35;96.18;96455.56;5080333;28;20861;-73
2021/09/29 02:21:02;;;;;;;20.05;11.95;;;;;;;16.25;96.10;96449.81;5079868;28;20227;-73
2021/09/29 02:23:29;;;;;;;21.90;12.15;;;;;;;15.74;97.57;96447.19;5079809;28;20207;-73
2021/09/29 02:25:55;;;;;;;23.98;12.32;;;;;;;15.98;96.95;96453.50;5079106;28;20215;-73
2021/09/29 02:28:22;;;;;;;20.27;11.80;;;;;;;15.94;97.08;96446.16;5080061;28;20228;-73
2021/09/29 02:30:48;;;;;;;21.92;13.18;;;;;;;16.15;96.79;96441.47;5076606;28;20210;-73
2021/09/29 02:33:16;;;;;;;23.80;12.27;;;;;;;16.34;97.81;96448.59;5080014;28;20204;-73
2021/09/29 02:35:43;;;;;;;20.75;12.27;;;;;;;16.25;97.23;96455.13;5078821;28;20204;-74
2021/09/29 02:38:09;;;;;;;20.80;12.07;;;;;;;15.93;97.94;96452.50;5076191;28;20196;-73
2021/09/29 02:40:36;;;;;;;23.02;12.10;;;;;;;15.71;98.89;96466.19;5079690;28;20200;-73
2021/09/29 02:43:03;;;;;;;24.73;12.38;;;;;;;15.89;98.44;96465.38;5080123;28;20211;-74
2021/09/29 02:45:29;;;;;;;25.05;13.32;;;;;;;16.07;98.43;96494.00;5078732;28;20199;-73
2021/09/29 02:47:56;;;;;;;26.13;13.25;;;;;;;15.98;99.50;96484.59;5079066;28;20245;-74
2021/09/29 02:50:24;;;;;;;26.70;12.75;;;;;;;16.11;99.42;96485.41;5079812;28;20211;-73
2021/09/29 02:52:50;;;;;;;26.02;12.98;;;;;;;15.67;100.00;96494.16;5079236;28;20224;-73
2021/09/29 02:55:17;;;;;;;25.52;13.55;;;;;;;15.90;99.43;96480.28;5079382;28;20199;-74
2021/09/29 02:57:43;;;;;;;31.27;14.15;;;;;;;15.99;99.62;96480.94;5078715;28;20215;-74
2021/09/29 03:00:11;;;;;;;28.38;13.73;;;;;;;15.89;99.79;96486.63;5078693;28;20575;-73
2021/09/29 03:02:38;;;;;;;25.98;13.48;;;;;;;15.84;99.15;96490.13;5079113;28;20220;-73
2021/09/29 03:05:06;;;;;;;25.45;13.02;;;;;;;15.98;98.73;96490.72;5079056;28;20200;-73
2021/09/29 03:07:34;;;;;;;23.02;13.13;;;;;;;15.95;99.30;96491.13;5078931;28;20224;-73
2021/09/29 03:10:00;;;;;;;26.52;13.55;;;;;;;15.79;99.18;96484.59;5079578;28;20204;-73
2021/09/29 03:12:27;;;;;;;27.98;15.18;;;;;;;15.77;98.52;96483.97;5078520;28;20254;-73
2021/09/29 03:14:53;;;;;;;26.02;14.13;;;;;;;15.84;98.44;96483.75;5079112;28;20226;-73
2021/09/29 03:17:20;;;;;;;25.52;14.23;;;;;;;15.69;99.01;96478.84;5078746;28;20200;-73
2021/09/29 03:19:46;;;;;;;26.38;13.85;;;;;;;15.86;99.27;96471.09;5078643;28;21204;-73
2021/09/29 03:22:13;;;;;;;29.55;15.00;;;;;;;15.80;99.05;96478.25;5079016;28;20227;-73
2021/09/29 03:24:41;;;;;;;34.20;15.32;;;;;;;15.77;99.53;96482.13;5078600;28;20211;-74
2021/09/29 03:27:08;;;;;;;29.23;14.80;;;;;;;15.84;98.69;96491.72;5078103;28;20266;-73
2021/09/29 03:29:36;;;;;;;34.15;15.93;;;;;;;16.00;98.76;96487.88;5078890;28;20207;-74
2021/09/29 03:32:02;;;;;;;30.30;15.75;;;;;;;15.95;98.86;96475.19;5078860;28;20733;-73
2021/09/29 03:34:29;;;;;;;31.65;15.23;;;;;;;15.96;98.74;96484.81;5079154;28;20196;-73
2021/09/29 03:36:56;;;;;;;30.58;16.10;;;;;;;15.83;99.23;96483.16;5078081;28;20211;-74
2021/09/29 03:39:23;;;;;;;28.23;15.10;;;;;;;15.83;98.72;96486.63;5075521;28;20296;-73
2021/09/29 03:41:50;;;;;;;33.85;16.33;;;;;;;15.95;98.90;96482.34;5078527;28;20711;-73
2021/09/29 03:44:17;;;;;;;35.03;16.00;;;;;;;15.84;98.11;96489.06;5078405;28;20672;-75
2021/09/29 03:46:44;;;;;;;35.22;16.50;;;;;;;15.54;99.56;96496.78;5077842;28;20672;-73
2021/09/29 03:49:10;;;;;;;32.38;16.25;;;;;;;15.46;99.85;96489.81;5078423;28;20226;-74
2021/09/29 03:51:37;;;;;;;33.63;16.80;;;;;;;15.67;99.19;96494.16;5078260;28;20226;-73
2021/09/29 03:54:03;;;;;;;33.58;16.73;;;;;;;15.68;98.97;96487.81;5078139;28;20204;-72
2021/09/29 03:56:30;;;;;;;34.22;15.95;;;;;;;15.77;98.94;96487.44;5077733;28;20199;-73
2021/09/29 03:58:58;;;;;;;36.83;16.63;;;;;;;15.67;99.67;96486.19;5078337;28;20196;-75
2021/09/29 04:01:24;;;;;;;36.28;16.45;;;;;;;15.75;98.71;96488.69;5078022;28;20228;-74
2021/09/29 04:03:51;;;;;;;35.78;17.05;;;;;;;15.69;98.55;96490.28;5078239;28;20203;-73
2021/09/29 04:06:18;;;;;;;32.55;15.88;;;;;;;15.68;98.25;96487.81;5077647;28;21186;-73
2021/09/29 04:08:44;;;;;;;35.10;16.70;;;;;;;15.63;98.99;96492.94;5077789;28;20225;-73
2021/09/29 04:11:11;;;;;;;34.05;16.10;;;;;;;15.61;98.91;96484.34;5077607;28;20223;-75
2021/09/29 04:13:38;;;;;;;35.97;15.93;;;;;;;15.55;99.06;96485.97;5078106;28;20737;-73
2021/09/29 04:16:06;;;;;;;33.17;15.82;;;;;;;15.49;100.00;96491.25;5077608;28;20203;-73
2021/09/29 04:18:33;;;;;;;37.45;16.52;;;;;;;15.32;100.00;96490.00;5077168;28;20200;-73
2021/09/29 04:20:59;;;;;;;36.60;16.55;;;;;;;15.41;99.96;96500.25;5078043;28;20235;-73
2021/09/29 04:23:26;;;;;;;35.03;16.25;;;;;;;15.50;99.85;96500.88;5078065;28;20207;-73
2021/09/29 04:25:53;;;;;;;36.92;16.67;;;;;;;15.39;100.00;96509.44;5076837;28;20206;-74
2021/09/29 04:28:20;;;;;;;38.08;16.60;;;;;;;15.46;100.00;96502.28;5077553;28;20233;-75
2021/09/29 04:30:47;;;;;;;34.92;15.82;;;;;;;15.31;100.00;96502.47;5078662;28;20211;-74
2021/09/29 04:33:15;;;;;;;39.10;16.42;;;;;;;15.33;100.00;96507.56;5077260;28;20718;-73
2021/09/29 04:35:42;;;;;;;30.98;15.40;;;;;;;15.29;100.00;96504.50;5076804;28;20208;-73
2021/09/29 04:38:08;;;;;;;36.28;15.60;;;;;;;15.14;100.00;96510.13;5074223;28;20892;-73
2021/09/29 04:40:35;;;;;;;36.28;15.68;;;;;;;15.24;100.00;96520.19;5077268;28;20210;-73
2021/09/29 04:43:01;;;;;;;36.47;16.88;;;;;;;15.19;100.00;96519.13;5077321;28;20324;-74
2021/09/29 04:45:28;;;;;;;34.70;15.50;;;;;;;15.22;100.00;96512.63;5077214;28;20222;-75
2021/09/29 04:47:54;;;;;;;37.17;15.45;;;;;;;14.86;100.00;96520.81;5076797;28;20603;-73
2021/09/29 04:50:22;;;;;;;34.58;15.60;;;;;;;15.23;100.00;96517.75;5077068;28;20995;-74
2021/09/29 04:52:49;;;;;;;36.00;16.13;;;;;;;15.27;100.00;96516.31;5077123;28;20224;-73
2021/09/29 04:55:15;;;;;;;31.50;14.90;;;;;;;15.18;100.00;96528.09;5077282;28;20371;-73
2021/09/29 04:57:42;;;;;;;30.08;15.20;;;;;;;15.25;100.00;96519.19;5076476;28;20200;-74
2021/09/29 05:00:09;;;;;;;32.22;14.68;;;;;;;15.28;100.00;96533.91;5077554;28;20206;-73
2021/09/29 05:02:38;;;;;;;36.13;15.98;;;;;;;15.21;100.00;96535.72;5077314;28;20770;-74
2021/09/29 05:05:05;;;;;;;32.92;15.00;;;;;;;15.24;100.00;96530.81;5076816;28;20207;-74
2021/09/29 05:07:34;;;;;;;33.67;15.82;;;;;;;15.46;100.00;96531.50;5075926;28;20218;-74
2021/09/29 05:10:01;;;;;;;36.50;16.27;;;;;;;15.40;100.00;96529.63;5077128;28;20200;-73
2021/09/29 05:12:29;;;;;;;34.72;15.38;;;;;;;15.62;100.00;96537.28;5077187;28;20216;-73
2021/09/29 05:14:57;;;;;;;39.35;16.45;;;;;;;15.38;100.00;96542.31;5076429;28;20215;-73
2021/09/29 05:17:24;;;;;;;30.30;15.35;;;;;;;15.30;100.00;96545.97;5076160;28;20210;-73
2021/09/29 05:19:52;;;;;;;33.85;15.70;;;;;;;15.34;100.00;96549.84;5077139;28;20219;-75
2021/09/29 05:22:18;;;;;;;37.53;16.63;;;;;;;15.45;100.00;96548.47;5076306;28;20774;-74
2021/09/29 05:24:46;;;;;;;33.78;15.63;;;;;;;15.45;100.00;96562.56;5076918;28;20203;-75
2021/09/29 05:27:13;;;;;;;33.50;16.00;;;;;;;15.43;100.00;96569.09;5076252;28;20215;-74
2021/09/29 05:29:45;;;;;;;32.17;15.63;;;;;;;15.55;100.00;96557.69;5077207;28;20221;-73
2021/09/29 05:34:39;;;;;;;30.00;15.73;;;;;;;15.24;100.00;96556.56;5067834;28;20791;-70
2021/09/29 05:37:06;;;;;;;36.08;15.73;;;;;;;15.50;100.00;96551.34;5068482;28;20209;-70
2021/09/29 05:39:33;;;;;;;36.08;16.15;;;;;;;15.24;100.00;96564.53;5072652;28;20309;-70
2021/09/29 05:42:01;;;;;;;34.25;16.75;;;;;;;15.31;100.00;96568.00;5068938;28;20605;-70
2021/09/29 05:44:28;;;;;;;37.05;17.08;;;;;;;15.15;100.00;96581.59;5075276;28;20301;-70
2021/09/29 05:46:54;;;;;;;34.28;16.10;;;;;;;15.12;100.00;96579.34;5069032;28;20200;-69
2021/09/29 05:49:21;;;;;;;35.00;16.95;;;;;;;15.32;100.00;96582.94;5069750;28;20228;-70
2021/09/29 05:51:47;;;;;;;39.63;16.27;;;;;;;15.26;100.00;96578.41;5068983;28;20234;-69
2021/09/29 05:54:14;;;;;;;36.97;17.10;;;;;;;15.17;100.00;96579.56;5076974;28;20230;-70
2021/09/29 05:56:41;;;;;;;37.85;15.88;;;;;;;15.33;100.00;96573.94;5068872;28;20667;-70
2021/09/29 05:59:09;;;;;;;36.35;16.55;;;;;;;15.27;100.00;96570.25;5069046;28;20200;-69
2021/09/29 06:01:36;;;;;;;34.05;16.10;;;;;;;15.39;100.00;96581.13;5069037;28;20192;-70
2021/09/29 06:04:03;;;;;;;30.20;14.55;;;;;;;15.29;100.00;96572.72;5070801;28;20200;-69
2021/09/29 06:06:29;;;;;;;35.85;15.10;;;;;;;15.34;100.00;96579.06;5068585;28;20227;-69
2021/09/29 06:08:56;;;;;;;37.40;17.48;;;;;;;15.41;100.00;96576.44;5068857;28;20235;-69
2021/09/29 06:11:22;;;;;;;31.13;15.55;;;;;;;15.14;100.00;96584.47;5073500;28;20204;-69
2021/09/29 06:13:49;;;;;;;34.67;15.70;;;;;;;15.46;100.00;96587.28;5073281;28;20224;-69
2021/09/29 06:16:17;;;;;;;33.15;16.55;;;;;;;15.34;100.00;96591.53;5069038;28;20295;-69
2021/09/29 06:18:44;;;;;;;33.42;15.70;;;;;;;15.47;100.00;96595.03;5068489;28;20675;-69
2021/09/29 06:21:10;;;;;;;31.60;15.18;;;;;;;15.24;100.00;96601.69;5069293;28;20220;-69
2021/09/29 06:23:38;;;;;;;33.97;15.57;;;;;;;15.14;100.00;96601.19;5068673;28;20585;-69
2021/09/29 06:26:07;;;;;;;29.98;14.63;;;;;;;15.13;100.00;96598.75;5068583;28;20201;-71
2021/09/29 06:28:37;;;;;;;30.38;14.18;;;;;;;14.95;100.00;96601.88;5068383;28;21204;-70
2021/09/29 06:31:04;;;;;;;25.93;12.33;;;;;;;14.98;100.00;96598.88;5068669;28;20650;-71
2021/09/29 06:33:32;;;;;;;28.63;14.50;;;;;;;15.30;100.00;96601.72;5076132;28;20607;-72
2021/09/29 06:35:59;;;;;;;24.00;9.82;;;;;;;15.14;100.00;96601.19;5076203;28;20227;-71
2021/09/29 06:38:26;;;;;;;30.38;14.15;;;;;;;15.15;100.00;96604.66;5071609;28;20197;-71
2021/09/29 06:40:52;;;;;;;29.90;13.95;;;;;;;15.24;100.00;96607.00;5072275;28;20202;-71
2021/09/29 06:43:19;;;;;;;30.40;13.55;;;;;;;15.30;100.00;96604.38;5072910;28;20224;-72
2021/09/29 06:45:47;;;;;;;27.25;13.27;;;;;;;15.52;100.00;96610.41;5071720;28;20345;-72
2021/09/29 06:48:15;;;;;;;30.17;13.50;;;;;;;15.17;100.00;96622.03;5072824;28;20238;-71
2021/09/29 06:50:43;;;;;;;31.48;15.02;;;;;;;15.64;99.93;96606.16;5072024;28;20209;-71
2021/09/29 06:53:21;;;;;;;28.17;13.00;;;;;;;15.65;99.10;96616.56;5072968;28;20231;-71
2021/09/29 06:55:48;;;;;;;24.23;11.40;;;;;;;15.55;99.43;96620.63;5070871;28;20219;-72
2021/09/29 06:58:15;;;;;;;23.27;12.60;;;;;;;15.60;99.74;96623.50;5070183;28;20212;-71
2021/09/29 07:00:42;;;;;;;31.48;17.40;;;;;;;15.37;100.00;96625.66;5071132;28;20201;-71
2021/09/29 07:03:08;;;;;;;24.08;12.20;;;;;;;15.42;99.38;96636.50;5072067;28;20230;-71
2021/09/29 07:05:35;;;;;;;25.23;11.02;;;;;;;15.50;99.15;96637.16;5070943;28;20211;-71
2021/09/29 07:08:04;;;;;;;21.23;10.95;;;;;;;15.58;98.44;96641.47;5071730;28;20196;-71
2021/09/29 07:10:31;;;;;;;18.52;10.00;;;;;;;15.52;98.02;96642.28;5071369;28;20204;-71
2021/09/29 07:12:58;;;;;;;20.77;11.75;;;;;;;15.72;97.50;96633.38;5071543;28;20229;-71
2021/09/29 07:15:26;;;;;;;21.42;10.00;;;;;;;15.73;96.20;96628.88;5071202;28;20295;-71
2021/09/29 07:17:57;;;;;;;17.05;9.98;;;;;;;15.71;95.55;96634.38;5071851;28;20200;-71
2021/09/29 07:20:24;;;;;;;20.33;9.70;;;;;;;15.82;96.98;96643.63;5071711;28;20201;-71
2021/09/29 07:22:52;;;;;;;19.05;9.98;;;;;;;15.90;95.84;96642.41;5073241;28;20235;-71
2021/09/29 07:25:20;;;;;;;18.73;10.05;;;;;;;16.20;94.06;96643.72;5071074;28;20200;-71
2021/09/29 07:27:47;;;;;;;16.02;8.75;;;;;;;15.85;93.70;96650.16;5071326;28;20240;-71
2021/09/29 07:30:14;;;;;;;18.33;9.35;;;;;;;16.06;93.36;96652.72;5071406;28;20592;-71
2021/09/29 07:32:40;;;;;;;19.45;8.95;;;;;;;16.10;93.07;96648.63;5071123;28;20319;-71
2021/09/29 07:35:08;;;;;;;16.48;7.55;;;;;;;16.27;92.83;96649.91;5071460;28;20212;-71
2021/09/29 07:37:35;;;;;;;17.33;8.40;;;;;;;16.49;90.94;96652.19;5070927;28;20204;-71
2021/09/29 07:40:01;;;;;;;14.93;8.43;;;;;;;16.61;91.65;96652.41;5074214;28;20575;-71
2021/09/29 07:42:29;;;;;;;12.45;7.20;;;;;;;16.45;89.89;96655.47;5071202;28;20223;-71
2021/09/29 07:44:56;;;;;;;13.73;7.22;;;;;;;16.57;89.27;96661.81;5077837;28;20206;-71
2021/09/29 07:47:22;;;;;;;8.30;4.50;;;;;;;16.35;87.04;96657.69;5071176;28;20208;-71
2021/09/29 07:49:49;;;;;;;13.43;6.85;;;;;;;16.52;87.80;96664.25;5070743;28;20220;-71
2021/09/29 07:52:16;;;;;;;9.80;5.20;;;;;;;16.52;85.63;96664.25;5070481;28;20770;-71
2021/09/29 07:54:42;;;;;;;11.45;5.35;;;;;;;16.44;85.40;96671.63;5071390;28;20623;-71
2021/09/29 07:57:09;;;;;;;11.00;5.65;;;;;;;16.32;84.93;96671.41;5070457;28;20571;-71
2021/09/29 07:59:37;;;;;;;8.48;5.10;;;;;;;16.58;85.84;96669.59;5071091;28;20196;-71
2021/09/29 08:02:03;;;;;;;14.35;4.93;;;;;;;16.46;85.35;96667.75;5070312;28;20297;-71
2021/09/29 08:04:30;;;;;;;7.22;4.22;;;;;;;16.21;86.76;96677.28;5070951;28;20203;-71
2021/09/29 08:06:56;;;;;;;9.15;3.88;;;;;;;16.25;85.13;96677.69;5069836;28;20205;-71
2021/09/29 08:09:23;;;;;;;9.25;4.55;;;;;;;16.34;84.40;96677.34;5070945;28;20566;-71
2021/09/29 08:11:49;;;;;;;8.05;4.47;;;;;;;16.47;84.37;96679.19;5070080;28;20224;-71
2021/09/29 08:14:18;;;;;;;6.78;4.00;;;;;;;16.64;83.36;96679.44;5076898;28;20207;-71
2021/09/29 08:16:46;;;;;;;4.88;3.42;;;;;;;16.54;83.18;96672.88;5069759;28;20288;-71
2021/09/29 08:19:14;;;;;;;8.45;3.83;;;;;;;16.88;82.03;96670.84;5070486;28;20199;-71
2021/09/29 08:21:43;;;;;;;8.80;3.40;;;;;;;16.80;81.70;96679.03;5069823;28;20319;-71
2021/09/29 08:24:12;;;;;;;8.38;3.20;;;;;;;16.41;82.22;96678.19;5078391;28;20215;-71
2021/09/29 08:26:51;;;;;;;6.20;3.15;;;;;;;16.61;82.38;96671.03;5069593;28;20652;-71
2021/09/29 08:35:04;;;;;;;4.65;2.80;;;;;;;16.80;80.91;96672.88;5049584;28;20247;-71
2021/09/29 08:37:38;;;;;;;8.05;2.67;;;;;;;16.85;79.66;96678.41;5069582;28;20232;-71
2021/09/29 08:40:11;;;;;;;5.50;2.65;;;;;;;17.30;79.29;96676.56;5069223;28;20211;-71
2021/09/29 08:42:44;;;;;;;5.90;2.60;;;;;;;17.43;77.88;96671.22;5069515;28;20621;-71
2021/09/29 08:45:14;;;;;;;3.42;2.50;;;;;;;17.38;77.15;96668.34;5070508;28;20205;-71
2021/09/29 08:47:49;;;;;;;3.47;2.03;;;;;;;17.41;76.72;96677.78;5069438;28;20285;-71
2021/09/29 08:50:22;;;;;;;4.40;2.63;;;;;;;17.60;75.61;96676.91;5070081;28;20343;-72
2021/09/29 08:53:14;;;;;;;5.35;2.03;;;;;;;17.67;72.86;96675.88;5070494;28;20267;-72
2021/09/29 09:15:09;;;;;;;2.63;0.80;;;;;;;18.05;68.25;96677.56;5069524;28;20316;-71
2021/09/29 09:17:38;;;;;;;3.00;1.10;;;;;;;18.40;67.55;96674.31;5078295;28;20593;-71
2021/09/29 09:20:12;;;;;;;2.08;1.02;;;;;;;18.50;67.09;96661.31;5069363;28;20308;-71
2021/09/29 09:22:39;;;;;;;2.72;1.02;;;;;;;18.59;67.53;96664.56;5074887;28;20226;-71
2021/09/29 09:25:06;;;;;;;1.60;0.77;;;;;;;18.65;67.12;96674.38;5072571;28;20203;-71
2021/09/29 09:27:41;;;;;;;4.80;1.13;;;;;;;19.13;66.43;96657.56;5070371;28;20196;-72
2021/09/29 09:30:09;;;;;;;3.05;1.20;;;;;;;19.16;65.08;96657.94;5069343;28;20219;-71
2021/09/29 09:32:44;;;;;;;2.55;0.90;;;;;;;19.27;64.88;96664.41;5070614;28;20754;-71
2021/09/29 09:35:13;;;;;;;5.00;1.05;;;;;;;18.91;63.76;96666.97;5071881;28;20584;-71
2021/09/29 09:37:43;;;;;;;2.03;0.93;;;;;;;18.94;62.51;96655.88;5083124;28;20216;-71
2021/09/29 09:40:12;;;;;;;1.13;1.00;;;;;;;19.18;62.51;96666.59;5068683;28;20538;-70
2021/09/29 09:42:43;;;;;;;3.97;1.13;;;;;;;19.22;62.79;96650.91;5068839;28;20224;-71
2021/09/29 09:45:10;;;;;;;2.53;1.10;;;;;;;19.39;64.34;96652.00;5069245;28;20203;-71
2021/09/29 09:47:43;;;;;;;2.60;1.00;;;;;;;19.40;63.33;96649.09;5075612;28;20254;-71
2021/09/29 09:50:24;;;;;;;3.42;1.35;;;;;;;19.38;63.59;96650.34;5069196;28;20223;-71
2021/09/29 09:52:50;;;;;;;1.83;0.80;;;;;;;18.69;63.97;96654.22;5074514;28;20242;-71
2021/09/29 09:55:18;;;;;;;2.13;0.90;;;;;;;18.54;65.06;96651.84;5068981;28;20219;-71
2021/09/29 09:57:46;;;;;;;3.42;1.00;;;;;;;18.55;64.91;96653.50;5069362;28;20571;-71
2021/09/29 10:00:15;;;;;;;3.78;1.20;;;;;;;18.56;65.33;96652.47;5075050;28;20265;-71
2021/09/29 10:02:43;;;;;;;3.45;1.00;;;;;;;18.63;64.85;96645.22;5074955;28;20312;-70
2021/09/29 10:05:12;;;;;;;1.60;1.00;;;;;;;19.24;64.08;96662.19;5068740;28;20690;-71
2021/09/29 10:07:39;;;;;;;4.30;1.00;;;;;;;19.44;63.12;96652.16;5075394;28;20197;-70
2021/09/29 10:10:11;;;;;;;2.22;0.90;;;;;;;19.24;61.72;96641.63;5078278;28;20840;-70
2021/09/29 10:12:58;;;;;;;4.13;0.50;;;;;;;19.03;62.37;96642.00;5075086;28;20220;-71
2021/09/29 10:24:06;;;;;;;0.90;0.70;;;;;;;19.51;59.93;96637.66;5077187;28;20215;-70
2021/09/29 10:26:32;;;;;;;2.95;1.08;;;;;;;19.79;61.12;96637.94;5071987;28;20203;-70
2021/09/29 10:29:05;;;;;;;4.85;1.00;;;;;;;20.10;58.70;96627.91;5076773;28;20234;-71
2021/09/29 10:31:47;;;;;;;5.75;1.00;;;;;;;20.15;59.56;96621.88;5072651;28;20200;-71
2021/09/29 10:34:25;;;;;;;2.20;0.80;;;;;;;19.98;59.50;96627.03;5072703;28;20216;-70
2021/09/29 10:37:24;;;;;;;2.75;0.80;;;;;;;20.10;59.87;96624.41;5072048;28;20200;-71
2021/09/29 10:42:51;;;;;;;3.50;0.77;;;;;;;19.75;60.10;96620.72;5072418;28;20277;-71
2021/09/29 11:04:42;;;;;;;4.85;1.00;;;;;;;19.69;59.33;96618.94;5072353;28;20250;-71
2021/09/29 11:07:26;;;;;;;3.72;1.10;;;;;;;20.35;56.93;96607.16;5071557;28;20224;-71
2021/09/29 11:29:46;;;;;;;2.20;0.90;;;;;;;21.26;53.89;96585.88;5070774;28;20215;-71
2021/09/29 11:34:41;;;;;;;3.35;1.00;;;;;;;20.82;56.05;96592.88;5049194;28;20236;-74
2021/09/29 12:10:49;;;;;;;4.65;1.00;;;;;;;20.44;57.36;96557.59;5049232;28;20221;-74
2021/09/29 12:13:16;;;;;;;2.83;0.90;;;;;;;20.08;58.20;96555.06;5049800;28;20252;-73
2021/09/29 12:15:45;;;;;;;5.53;0.90;;;;;;;19.98;57.83;96551.31;5048342;28;20288;-74
2021/09/29 12:18:12;;;;;;;3.00;1.08;;;;;;;19.84;58.95;96550.63;5049509;28;20251;-73
2021/09/29 12:20:50;;;;;;;2.60;0.90;;;;;;;20.14;58.34;96550.66;5049890;28;20296;-74
2021/09/29 12:23:18;;;;;;;3.08;0.95;;;;;;;19.88;58.90;96553.69;5049165;28;20271;-73
2021/09/29 12:25:47;;;;;;;2.17;0.70;;;;;;;19.79;59.50;96552.38;5049110;28;20633;-74
2021/09/29 12:28:18;;;;;;;2.17;1.27;;;;;;;19.90;59.97;96557.75;5049438;28;20665;-74
2021/09/29 12:31:07;;;;;;;1.42;1.00;;;;;;;19.84;58.75;96549.81;5049167;28;20233;-72
2021/09/29 12:33:45;;;;;;;1.42;0.80;;;;;;;19.80;58.96;96554.81;5048032;28;20697;-73
2021/09/29 12:36:14;;;;;;;2.35;0.90;;;;;;;19.51;58.08;96562.00;5049098;28;20201;-72
2021/09/29 12:38:42;;;;;;;2.55;0.98;;;;;;;19.58;58.49;96560.88;5049486;28;20237;-73
2021/09/29 12:41:09;;;;;;;5.32;1.35;;;;;;;19.62;58.78;96554.84;5049165;28;20635;-73
2021/09/29 12:43:36;;;;;;;4.88;0.93;;;;;;;19.40;59.49;96565.41;5048261;28;20217;-73
2021/09/29 12:46:05;;;;;;;2.08;0.90;;;;;;;19.54;59.89;96559.69;5048719;28;20587;-73
2021/09/29 12:48:32;;;;;;;7.00;1.30;;;;;;;19.56;59.65;96556.78;5049366;28;20288;-74
2021/09/29 12:50:59;;;;;;;2.03;1.02;;;;;;;19.63;60.08;96548.47;5048724;28;20225;-73
2021/09/29 12:53:31;;;;;;;4.80;1.10;;;;;;;19.88;59.95;96546.50;5048780;28;20224;-74
2021/09/29 12:56:00;;;;;;;3.03;0.60;;;;;;;19.85;59.04;96546.13;5048843;28;20201;-73
2021/09/29 12:58:28;;;;;;;1.92;0.60;;;;;;;19.77;58.67;96535.75;5048696;28;20233;-73
2021/09/29 13:00:55;;;;;;;2.53;1.02;;;;;;;19.83;59.20;96548.19;5048660;28;20205;-74
2021/09/29 13:03:23;;;;;;;1.85;1.00;;;;;;;20.10;58.84;96544.97;5048604;28;20593;-72
2021/09/29 13:05:49;;;;;;;2.17;0.95;;;;;;;20.12;59.34;96545.53;5047523;28;20592;-73
2021/09/29 13:08:17;;;;;;;3.08;1.02;;;;;;;20.70;58.06;96543.81;5048660;28;20212;-72
2021/09/29 13:10:44;;;;;;;2.45;0.82;;;;;;;20.69;57.64;96540.28;5048410;28;20723;-72
2021/09/29 13:13:11;;;;;;;1.23;0.80;;;;;;;20.63;57.55;96540.41;5048499;28;20231;-73
2021/09/29 13:15:40;;;;;;;2.28;0.90;;;;;;;20.59;57.96;96539.25;5047921;28;20203;-74
2021/09/29 13:18:08;;;;;;;2.92;0.80;;;;;;;20.45;57.67;96543.97;5047373;28;20208;-73
2021/09/29 13:20:36;;;;;;;2.78;0.90;;;;;;;20.50;58.49;96540.63;5047809;28;20205;-74